Observation data for White River Lake on 02/15/2017      Previous  Date  Next       Current Mesonet Observations  Soil Data  Daily Summary Page  Observations in Plain Language
KWVS 150600Z 31013KT 04/M01 A3016 RMK A01 T00371009  RH  073%=      5-min Rain = 0
KWVS 150605Z 32013KT 04/M01 A3016 RMK A01 T00361010  RH  073%=      5-min Rain = 0
KWVS 150610Z 32012KT 04/M01 A3016 RMK A01 T00351010  RH  073%=      5-min Rain = 0
KWVS 150615Z 31014KT 04/M01 A3016 RMK A01 T00351010  RH  073%=      5-min Rain = 0
KWVS 150620Z 31013KT 04/M01 A3016 RMK A01 T00351011  RH  073%=      5-min Rain = 0
KWVS 150625Z 31014KT 04/M01 A3016 RMK A01 T00351011  RH  073%=      5-min Rain = 0
KWVS 150630Z 31014KT 04/M01 A3016 RMK A01 T00351012  RH  072%=      5-min Rain = 0
KWVS 150635Z 32013KT 03/M01 A3016 RMK A01 T00341012  RH  073%=      5-min Rain = 0
KWVS 150640Z 32013KT 03/M01 A3015 RMK A01 T00341013  RH  072%=      5-min Rain = 0
KWVS 150645Z 32014KT 04/M01 A3015 RMK A01 T00351014  RH  071%=      5-min Rain = 0
KWVS 150650Z 32013KT 04/M01 A3016 RMK A01 T00361014  RH  070%=      5-min Rain = 0
KWVS 150655Z 32013KT 04/M02 A3016 RMK A01 T00351015  RH  071%=      5-min Rain = 0
KWVS 150700Z 32013KT 03/M02 A3016 RMK A01 T00341015  RH  071%=      5-min Rain = 0
KWVS 150705Z 32013KT 03/M02 A3016 RMK A01 T00331015  RH  071%=      5-min Rain = 0
KWVS 150710Z 32013KT 03/M02 A3016 RMK A01 T00321016  RH  071%=      5-min Rain = 0
KWVS 150715Z 32013KT 03/M02 A3016 RMK A01 T00311016  RH  072%=      5-min Rain = 0
KWVS 150720Z 32013KT 03/M02 A3016 RMK A01 T00311016  RH  072%=      5-min Rain = 0
KWVS 150725Z 32013KT 03/M02 A3016 RMK A01 T00301017  RH  072%=      5-min Rain = 0
KWVS 150730Z 32013KT 03/M02 A3016 RMK A01 T00301017  RH  072%=      5-min Rain = 0
KWVS 150735Z 32014KT 03/M02 A3016 RMK A01 T00301018  RH  072%=      5-min Rain = 0
KWVS 150740Z 32014KT 03/M02 A3016 RMK A01 T00301018  RH  071%=      5-min Rain = 0
KWVS 150745Z 32014KT 03/M02 A3016 RMK A01 T00291018  RH  071%=      5-min Rain = 0
KWVS 150750Z 32014KT 03/M02 A3016 RMK A01 T00291019  RH  071%=      5-min Rain = 0
KWVS 150755Z 32013KT 03/M02 A3016 RMK A01 T00291020  RH  071%=      5-min Rain = 0
KWVS 150800Z 32013G18KT 03/M02 A3016 RMK A01 T00291020  RH  071%=      5-min Rain = 0
KWVS 150805Z 32014KT 03/M02 A3016 RMK A01 T00291021  RH  070%=      5-min Rain = 0
KWVS 150810Z 32014KT 03/M02 A3016 RMK A01 T00291021  RH  070%=      5-min Rain = 0
KWVS 150815Z 32013KT 03/M02 A3016 RMK A01 T00281022  RH  071%=      5-min Rain = 0
KWVS 150820Z 32014KT 03/M02 A3016 RMK A01 T00271022  RH  071%=      5-min Rain = 0
KWVS 150825Z 32014KT 03/M02 A3016 RMK A01 T00271022  RH  070%=      5-min Rain = 0
KWVS 150830Z 32014KT 03/M02 A3016 RMK A01 T00271022  RH  071%=      5-min Rain = 0
KWVS 150835Z 32014KT 03/M02 A3016 RMK A01 T00261022  RH  071%=      5-min Rain = 0
KWVS 150840Z 32014KT 03/M02 A3016 RMK A01 T00271023  RH  070%=      5-min Rain = 0
KWVS 150845Z 32014KT 03/M02 A3016 RMK A01 T00261023  RH  070%=      5-min Rain = 0
KWVS 150850Z 32014KT 03/M02 A3016 RMK A01 T00261024  RH  070%=      5-min Rain = 0
KWVS 150855Z 32014KT 03/M02 A3016 RMK A01 T00251024  RH  071%=      5-min Rain = 0
KWVS 150900Z 32014KT 03/M02 A3016 RMK A01 T00251024  RH  071%=      5-min Rain = 0
KWVS 150905Z 32014KT 03/M02 A3016 RMK A01 T00251024  RH  071%=      5-min Rain = 0
KWVS 150910Z 32014KT 02/M02 A3016 RMK A01 T00241024  RH  071%=      5-min Rain = 0
KWVS 150915Z 32014KT 02/M02 A3016 RMK A01 T00241024  RH  071%=      5-min Rain = 0
KWVS 150920Z 32013KT 02/M02 A3016 RMK A01 T00231024  RH  072%=      5-min Rain = 0
KWVS 150925Z 32012KT 02/M02 A3016 RMK A01 T00221024  RH  072%=      5-min Rain = 0
KWVS 150930Z 32011KT 02/M02 A3016 RMK A01 T00211024  RH  073%=      5-min Rain = 0
KWVS 150935Z 32010KT 02/M02 A3016 RMK A01 T00191024  RH  073%=      5-min Rain = 0
KWVS 150940Z 32010KT 02/M03 A3016 RMK A01 T00191025  RH  073%=      5-min Rain = 0
KWVS 150945Z 33010KT 02/M03 A3016 RMK A01 T00181025  RH  073%=      5-min Rain = 0
KWVS 150950Z 33011KT 02/M03 A3016 RMK A01 T00181025  RH  074%=      5-min Rain = 0
KWVS 150955Z 33011KT 02/M03 A3016 RMK A01 T00191025  RH  073%=      5-min Rain = 0
KWVS 151000Z 33011KT 02/M03 A3016 RMK A01 T00201026  RH  072%=      5-min Rain = 0
KWVS 151005Z 33010KT 02/M03 A3016 RMK A01 T00201026  RH  072%=      5-min Rain = 0
KWVS 151010Z 33010KT 02/M03 A3016 RMK A01 T00201026  RH  072%=      5-min Rain = 0
KWVS 151015Z 33010KT 02/M03 A3016 RMK A01 T00201027  RH  072%=      5-min Rain = 0
KWVS 151020Z 33010KT 02/M03 A3016 RMK A01 T00191027  RH  072%=      5-min Rain = 0
KWVS 151025Z 33010KT 02/M03 A3016 RMK A01 T00191027  RH  072%=      5-min Rain = 0
KWVS 151030Z 33011KT 02/M03 A3016 RMK A01 T00191027  RH  072%=      5-min Rain = 0
KWVS 151035Z 33011KT 02/M03 A3016 RMK A01 T00201027  RH  071%=      5-min Rain = 0
KWVS 151040Z 33011KT 02/M03 A3016 RMK A01 T00201027  RH  071%=      5-min Rain = 0
KWVS 151045Z 33011KT 02/M03 A3016 RMK A01 T00201027  RH  071%=      5-min Rain = 0
KWVS 151050Z 33010KT 02/M03 A3016 RMK A01 T00191028  RH  072%=      5-min Rain = 0
KWVS 151055Z 32009KT 02/M03 A3016 RMK A01 T00171028  RH  072%=      5-min Rain = 0
KWVS 151100Z 32009KT 01/M03 A3017 RMK A01 T00141029  RH  074%=      5-min Rain = 0
KWVS 151105Z 32010KT 02/M03 A3017 RMK A01 T00151027  RH  074%=      5-min Rain = 0
KWVS 151110Z 32010KT 02/M03 A3017 RMK A01 T00151027  RH  074%=      5-min Rain = 0
KWVS 151115Z 32010KT 02/M03 A3017 RMK A01 T00151027  RH  074%=      5-min Rain = 0
KWVS 151120Z 32010KT 02/M03 A3017 RMK A01 T00151027  RH  075%=      5-min Rain = 0
KWVS 151125Z 32009KT 02/M03 A3017 RMK A01 T00161027  RH  074%=      5-min Rain = 0
KWVS 151130Z 32009KT 01/M03 A3018 RMK A01 T00131028  RH  075%=      5-min Rain = 0
KWVS 151135Z 32009KT 01/M03 A3018 RMK A01 T00111027  RH  076%=      5-min Rain = 0
KWVS 151140Z 32010KT 01/M03 A3018 RMK A01 T00111027  RH  077%=      5-min Rain = 0
KWVS 151145Z 32010KT 01/M03 A3018 RMK A01 T00111027  RH  076%=      5-min Rain = 0
KWVS 151150Z 32011KT 01/M03 A3018 RMK A01 T00111026  RH  077%=      5-min Rain = 0
KWVS 151155Z 32010KT 01/M03 A3018 RMK A01 T00101027  RH  077%=      5-min Rain = 0
KWVS 151200Z 32010KT 01/M03 A3018 RMK A01 T00081027  RH  078%=      5-min Rain = 0
KWVS 151205Z 32011KT 01/M03 A3018 RMK A01 T00081027  RH  078%=      5-min Rain = 0
KWVS 151210Z 32010KT 01/M03 A3018 RMK A01 T00081026  RH  078%=      5-min Rain = 0
KWVS 151215Z 32010KT 01/M03 A3018 RMK A01 T00081027  RH  078%=      5-min Rain = 0
KWVS 151220Z 32011KT 01/M03 A3018 RMK A01 T00081027  RH  078%=      5-min Rain = 0
KWVS 151225Z 32011KT 01/M03 A3019 RMK A01 T00081027  RH  078%=      5-min Rain = 0
KWVS 151230Z 32011KT 01/M03 A3019 RMK A01 T00081027  RH  078%=      5-min Rain = 0
KWVS 151235Z 32011KT 01/M03 A3019 RMK A01 T00081027  RH  078%=      5-min Rain = 0
KWVS 151240Z 32010KT 01/M03 A3019 RMK A01 T00081027  RH  078%=      5-min Rain = 0
KWVS 151245Z 32010KT 01/M03 A3019 RMK A01 T00061028  RH  079%=      5-min Rain = 0
KWVS 151250Z 32010KT 01/M03 A302 RMK A01 T00051028  RH  079%=      5-min Rain = 0
KWVS 151255Z 32010KT 01/M03 A302 RMK A01 T00051027  RH  079%=      5-min Rain = 0
KWVS 151300Z 32011KT 01/M03 A302 RMK A01 T00061027  RH  079%=      5-min Rain = 0
KWVS 151305Z 32010KT 01/M03 A302 RMK A01 T00061027  RH  079%=      5-min Rain = 0
KWVS 151310Z 32010KT 01/M03 A302 RMK A01 T00051027  RH  079%=      5-min Rain = 0
KWVS 151315Z 32010KT 01/M03 A302 RMK A01 T00051027  RH  079%=      5-min Rain = 0
KWVS 151320Z 32010KT 01/M03 A3021 RMK A01 T00051028  RH  079%=      5-min Rain = 0
KWVS 151325Z 32010KT 01/M03 A3021 RMK A01 T00051027  RH  079%=      5-min Rain = 0
KWVS 151330Z 32010KT 01/M03 A3021 RMK A01 T00051028  RH  079%=      5-min Rain = 0
KWVS 151335Z 32009KT 00/M03 A3021 RMK A01 T00041028  RH  079%=      5-min Rain = 0
KWVS 151340Z 32009KT 01/M03 A3022 RMK A01 T00051028  RH  079%=      5-min Rain = 0
KWVS 151345Z 32009KT 01/M03 A3022 RMK A01 T00061028  RH  079%=      5-min Rain = 0
KWVS 151350Z 33009KT 01/M03 A3022 RMK A01 T00061028  RH  078%=      5-min Rain = 0
KWVS 151355Z 32009KT 01/M03 A3022 RMK A01 T00081028  RH  078%=      5-min Rain = 0
KWVS 151400Z 32008KT 01/M03 A3022 RMK A01 T00101027  RH  077%=      5-min Rain = 0
KWVS 151405Z 32009KT 01/M03 A3022 RMK A01 T00131025  RH  076%=      5-min Rain = 0
KWVS 151410Z 32009KT 02/M02 A3023 RMK A01 T00161024  RH  075%=      5-min Rain = 0
KWVS 151415Z 32010KT 02/M02 A3023 RMK A01 T00191024  RH  074%=      5-min Rain = 0
KWVS 151420Z 32010KT 02/M02 A3023 RMK A01 T00221023  RH  073%=      5-min Rain = 0
KWVS 151425Z 32010KT 02/M02 A3023 RMK A01 T00241022  RH  072%=      5-min Rain = 0
KWVS 151430Z 32010KT 03/M02 A3023 RMK A01 T00261022  RH  071%=      5-min Rain = 0
KWVS 151435Z 32009KT 03/M02 A3024 RMK A01 T00301020  RH  071%=      5-min Rain = 0
KWVS 151440Z 32008KT 03/M02 A3024 RMK A01 T00331019  RH  069%=      5-min Rain = 0
KWVS 151445Z 33009KT 04/M02 A3024 RMK A01 T00371021  RH  066%=      5-min Rain = 0
KWVS 151450Z 33010KT 04/M02 A3024 RMK A01 T00401022  RH  064%=      5-min Rain = 0
KWVS 151455Z 33009KT 04/M02 A3025 RMK A01 T00431022  RH  063%=      5-min Rain = 0
KWVS 151500Z 34011KT 05/M03 A3025 RMK A01 T00461025  RH  060%=      5-min Rain = 0
KWVS 151505Z 34011KT 05/M03 A3025 RMK A01 T00491025  RH  059%=      5-min Rain = 0
KWVS 151510Z 34011KT 05/M03 A3025 RMK A01 T00501026  RH  058%=      5-min Rain = 0
KWVS 151515Z 34011KT 05/M03 A3025 RMK A01 T00511025  RH  058%=      5-min Rain = 0
KWVS 151520Z 34010KT 05/M02 A3026 RMK A01 T00531023  RH  058%=      5-min Rain = 0
KWVS 151525Z 34011KT 05/M02 A3026 RMK A01 T00541023  RH  058%=      5-min Rain = 0
KWVS 151530Z 34011KT 06/M02 A3026 RMK A01 T00561022  RH  058%=      5-min Rain = 0
KWVS 151535Z 34010KT 06/M02 A3026 RMK A01 T00591020  RH  057%=      5-min Rain = 0
KWVS 151540Z 34010KT 06/M02 A3026 RMK A01 T00641021  RH  055%=      5-min Rain = 0
KWVS 151545Z 35009KT 07/M02 A3026 RMK A01 T00691024  RH  052%=      5-min Rain = 0
KWVS 151550Z 35010KT 07/M03 A3026 RMK A01 T00711031  RH  049%=      5-min Rain = 0
KWVS 151555Z 35011KT 07/M03 A3026 RMK A01 T00721032  RH  048%=      5-min Rain = 0
KWVS 151600Z 35011KT 07/M03 A3026 RMK A01 T00691034  RH  048%=      5-min Rain = 0
KWVS 151605Z 36010KT 08/M03 A3026 RMK A01 T00751028  RH  048%=      5-min Rain = 0
KWVS 151610Z 00009KT 08/M03 A3026 RMK A01 T00771028  RH  048%=      5-min Rain = 0
KWVS 151615Z 36010KT 08/M03 A3026 RMK A01 T00791028  RH  047%=      5-min Rain = 0
KWVS 151620Z 36009KT 08/M03 A3026 RMK A01 T00781029  RH  047%=      5-min Rain = 0
KWVS 151625Z 00010KT 08/M03 A3026 RMK A01 T00811032  RH  045%=      5-min Rain = 0
KWVS 151630Z 01010KT 08/M03 A3026 RMK A01 T00821033  RH  044%=      5-min Rain = 0
KWVS 151635Z 01010KT 08/M03 A3026 RMK A01 T00811033  RH  044%=      5-min Rain = 0
KWVS 151640Z 02009KT 08/M03 A3026 RMK A01 T00841032  RH  044%=      5-min Rain = 0
KWVS 151645Z 01008KT 08/M03 A3026 RMK A01 T00821034  RH  044%=      5-min Rain = 0
KWVS 151650Z 36008KT 09/M03 A3026 RMK A01 T00861031  RH  044%=      5-min Rain = 0
KWVS 151655Z 36007KT 09/M03 A3026 RMK A01 T00901030  RH  043%=      5-min Rain = 0
KWVS 151700Z 34008KT 09/M03 A3026 RMK A01 T00911033  RH  042%=      5-min Rain = 0
KWVS 151705Z 34008KT 09/M03 A3026 RMK A01 T00911031  RH  042%=      5-min Rain = 0
KWVS 151710Z 34009KT 09/M03 A3026 RMK A01 T00921032  RH  042%=      5-min Rain = 0
KWVS 151715Z 35007KT 09/M03 A3026 RMK A01 T00921032  RH  042%=      5-min Rain = 0
KWVS 151720Z 34006G11KT 09/M03 A3026 RMK A01 T00931029  RH  042%=      5-min Rain = 0
KWVS 151725Z 34008KT 10/M03 A3026 RMK A01 T00961032  RH  041%=      5-min Rain = 0
KWVS 151730Z 34007KT 10/M04 A3026 RMK A01 T00951035  RH  040%=      5-min Rain = 0
KWVS 151735Z 34007KT 10/M04 A3026 RMK A01 T00971035  RH  040%=      5-min Rain = 0
KWVS 151740Z 00008G13KT 10/M03 A3026 RMK A01 T00981034  RH  039%=      5-min Rain = 0
KWVS 151745Z 00007KT 10/M04 A3026 RMK A01 T00971036  RH  039%=      5-min Rain = 0
KWVS 151750Z 32007KT 10/M04 A3026 RMK A01 T00991036  RH  039%=      5-min Rain = 0
KWVS 151755Z 34010KT 10/M04 A3025 RMK A01 T01001040  RH  037%=      5-min Rain = 0
KWVS 151800Z 00007G13KT 10/M04 A3025 RMK A01 T00981039  RH  038%=      5-min Rain = 0
KWVS 151805Z 00008KT 11/M04 A3025 RMK A01 T01051036  RH  037%=      5-min Rain = 0
KWVS 151810Z 02008KT 11/M04 A3025 RMK A01 T01051035  RH  037%=      5-min Rain = 0
KWVS 151815Z 00008KT 11/M03 A3025 RMK A01 T01081033  RH  037%=      5-min Rain = 0
KWVS 151820Z 01008KT 11/M03 A3025 RMK A01 T01081033  RH  037%=      5-min Rain = 0
KWVS 151825Z 35007G12KT 11/M03 A3024 RMK A01 T01101031  RH  037%=      5-min Rain = 0
KWVS 151830Z 34009KT 11/M03 A3024 RMK A01 T01121032  RH  036%=      5-min Rain = 0
KWVS 151835Z 35009G15KT 11/M04 A3024 RMK A01 T01101035  RH  036%=      5-min Rain = 0
KWVS 151840Z 35008G14KT 11/M03 A3024 RMK A01 T01101034  RH  037%=      5-min Rain = 0
KWVS 151845Z 00008G13KT 11/M03 A3023 RMK A01 T01101032  RH  037%=      5-min Rain = 0
KWVS 151850Z 34009G20KT 11/M03 A3023 RMK A01 T01131030  RH  037%=      5-min Rain = 0
KWVS 151855Z 34007KT 11/M03 A3023 RMK A01 T01111031  RH  037%=      5-min Rain = 0
KWVS 151900Z 35009KT 12/M03 A3023 RMK A01 T01151033  RH  036%=      5-min Rain = 0
KWVS 151905Z 33006G12KT 11/M03 A3022 RMK A01 T01121034  RH  036%=      5-min Rain = 0
KWVS 151910Z 33007G12KT 12/M03 A3022 RMK A01 T01171025  RH  037%=      5-min Rain = 0
KWVS 151915Z 32008KT 12/M03 A3022 RMK A01 T01181025  RH  037%=      5-min Rain = 0
KWVS 151920Z 31011KT 12/M03 A3022 RMK A01 T01171027  RH  037%=      5-min Rain = 0
KWVS 151925Z 33010G16KT 12/M03 A3021 RMK A01 T01171028  RH  037%=      5-min Rain = 0
KWVS 151930Z 32008G14KT 11/M03 A3021 RMK A01 T01141028  RH  037%=      5-min Rain = 0
KWVS 151935Z 33010KT 12/M03 A3021 RMK A01 T01191027  RH  036%=      5-min Rain = 0
KWVS 151940Z 32007G13KT 12/M03 A3021 RMK A01 T01221026  RH  036%=      5-min Rain = 0
KWVS 151945Z 31009G14KT 12/M03 A302 RMK A01 T01181028  RH  036%=      5-min Rain = 0
KWVS 151950Z 33008KT 12/M03 A302 RMK A01 T01191029  RH  036%=      5-min Rain = 0
KWVS 151955Z 32009KT 12/M04 A302 RMK A01 T01171035  RH  035%=      5-min Rain = 0
KWVS 152000Z 32009KT 12/M03 A3019 RMK A01 T01191031  RH  035%=      5-min Rain = 0
KWVS 152005Z 32008KT 12/M03 A3019 RMK A01 T01181033  RH  035%=      5-min Rain = 0
KWVS 152010Z 29008KT 12/M03 A3019 RMK A01 T01191028  RH  036%=      5-min Rain = 0
KWVS 152015Z 31008G14KT 12/M03 A3019 RMK A01 T01211027  RH  036%=      5-min Rain = 0
KWVS 152020Z 32007KT 12/M03 A3019 RMK A01 T01201027  RH  036%=      5-min Rain = 0
KWVS 152025Z 31005KT 12/M03 A3018 RMK A01 T01211028  RH  036%=      5-min Rain = 0
KWVS 152030Z 31009KT 12/M03 A3018 RMK A01 T01231026  RH  036%=      5-min Rain = 0
KWVS 152035Z 31005G12KT 12/M03 A3018 RMK A01 T01211028  RH  035%=      5-min Rain = 0
KWVS 152040Z 31009KT 12/M02 A3018 RMK A01 T01241022  RH  036%=      5-min Rain = 0
KWVS 152045Z 28003G8KT 12/M03 A3018 RMK A01 T01221026  RH  036%=      5-min Rain = 0
KWVS 152050Z 31009G15KT 12/M02 A3017 RMK A01 T01231020  RH  037%=      5-min Rain = 0
KWVS 152055Z 31008KT 13/M02 A3017 RMK A01 T01251020  RH  037%=      5-min Rain = 0
KWVS 152100Z 32005KT 12/M03 A3017 RMK A01 T01221027  RH  036%=      5-min Rain = 0
KWVS 152105Z 32007G12KT 12/M02 A3017 RMK A01 T01241023  RH  036%=      5-min Rain = 0
KWVS 152110Z 32007G12KT 13/M02 A3016 RMK A01 T01251022  RH  036%=      5-min Rain = 0
KWVS 152115Z 31011KT 13/M02 A3016 RMK A01 T01281021  RH  036%=      5-min Rain = 0
KWVS 152120Z 34007G13KT 13/M02 A3016 RMK A01 T01261024  RH  036%=      5-min Rain = 0
KWVS 152125Z 32006G13KT 13/M03 A3016 RMK A01 T01271026  RH  035%=      5-min Rain = 0
KWVS 152130Z 34008KT 13/M02 A3016 RMK A01 T01281024  RH  035%=      5-min Rain = 0
KWVS 152135Z 30008KT 13/M02 A3016 RMK A01 T01321023  RH  034%=      5-min Rain = 0
KWVS 152140Z 32009KT 13/M03 A3016 RMK A01 T01301026  RH  034%=      5-min Rain = 0
KWVS 152145Z 29005KT 13/M03 A3016 RMK A01 T01291027  RH  034%=      5-min Rain = 0
KWVS 152150Z 32007G13KT 13/M03 A3015 RMK A01 T01291027  RH  034%=      5-min Rain = 0
KWVS 152155Z 31009KT 13/M02 A3015 RMK A01 T01301023  RH  035%=      5-min Rain = 0
KWVS 152200Z 32008G13KT 13/M03 A3015 RMK A01 T01271026  RH  035%=      5-min Rain = 0
KWVS 152205Z 30004KT 13/M03 A3015 RMK A01 T01281029  RH  034%=      5-min Rain = 0
KWVS 152210Z 31008G14KT 13/M02 A3015 RMK A01 T01321024  RH  034%=      5-min Rain = 0
KWVS 152215Z 30006KT 13/M03 A3015 RMK A01 T01311025  RH  034%=      5-min Rain = 0
KWVS 152220Z 30006KT 14/M02 A3014 RMK A01 T01351023  RH  034%=      5-min Rain = 0
KWVS 152225Z 31008KT 13/M03 A3014 RMK A01 T01331025  RH  034%=      5-min Rain = 0
KWVS 152230Z 33005G11KT 13/M03 A3014 RMK A01 T01301027  RH  034%=      5-min Rain = 0
KWVS 152235Z 29004KT 13/M03 A3014 RMK A01 T01291028  RH  034%=      5-min Rain = 0
KWVS 152240Z 28006KT 13/M03 A3014 RMK A01 T01301028  RH  033%=      5-min Rain = 0
KWVS 152245Z 29007G12KT 13/M03 A3014 RMK A01 T01291028  RH  034%=      5-min Rain = 0
KWVS 152250Z 30010KT 13/M03 A3014 RMK A01 T01271028  RH  034%=      5-min Rain = 0
KWVS 152255Z 30009KT 13/M03 A3014 RMK A01 T01281027  RH  034%=      5-min Rain = 0
KWVS 152300Z 30006KT 13/M03 A3014 RMK A01 T01281027  RH  034%=      5-min Rain = 0
KWVS 152305Z 32005KT 13/M03 A3014 RMK A01 T01281027  RH  034%=      5-min Rain = 0
KWVS 152310Z 32007KT 13/M03 A3014 RMK A01 T01271026  RH  034%=      5-min Rain = 0
KWVS 152315Z 32005KT 13/M03 A3014 RMK A01 T01271028  RH  034%=      5-min Rain = 0
KWVS 152320Z 32006KT 13/M03 A3014 RMK A01 T01261028  RH  034%=      5-min Rain = 0
KWVS 152325Z 31007KT 13/M02 A3014 RMK A01 T01251022  RH  036%=      5-min Rain = 0
KWVS 152330Z 31006KT 13/M02 A3014 RMK A01 T01251024  RH  036%=      5-min Rain = 0
KWVS 152335Z 32005KT 12/M03 A3014 RMK A01 T01241026  RH  035%=      5-min Rain = 0
KWVS 152340Z 33007KT 12/M03 A3014 RMK A01 T01221025  RH  036%=      5-min Rain = 0
KWVS 152345Z 32005KT 12/M02 A3014 RMK A01 T01211024  RH  036%=      5-min Rain = 0
KWVS 152350Z 34004KT 12/M02 A3013 RMK A01 T01211024  RH  037%=      5-min Rain = 0
KWVS 152355Z 33003KT 12/M03 A3013 RMK A01 T01211025  RH  037%=      5-min Rain = 0
KWVS 160000Z 31003KT 12/M02 A3013 RMK A01 T01201022  RH  037%=      5-min Rain = 0
KWVS 160005Z 30002KT 12/M02 A3013 RMK A01 T01191024  RH  037%=      5-min Rain = 0
KWVS 160010Z 29000KT 12/M02 A3013 RMK A01 T01231023  RH  036%=      5-min Rain = 0
KWVS 160015Z 29000KT 13/M03 A3013 RMK A01 T01261026  RH  035%=      5-min Rain = 0
KWVS 160020Z 00000KT 13/M02 A3013 RMK A01 T01251024  RH  036%=      5-min Rain = 0
KWVS 160025Z 22000KT 12/M03 A3013 RMK A01 T01191026  RH  036%=      5-min Rain = 0
KWVS 160030Z 21001KT 11/M03 A3013 RMK A01 T01131025  RH  038%=      5-min Rain = 0
KWVS 160035Z 19002KT 11/M03 A3013 RMK A01 T01101026  RH  039%=      5-min Rain = 0
KWVS 160040Z 18003KT 11/M03 A3013 RMK A01 T01061025  RH  040%=      5-min Rain = 0
KWVS 160045Z 19004KT 10/M02 A3013 RMK A01 T01011022  RH  042%=      5-min Rain = 0
KWVS 160050Z 19003KT 10/M02 A3013 RMK A01 T00991023  RH  043%=      5-min Rain = 0
KWVS 160055Z 18002KT 10/M03 A3013 RMK A01 T00991025  RH  042%=      5-min Rain = 0
KWVS 160100Z 17002KT 10/M03 A3013 RMK A01 T01011025  RH  041%=      5-min Rain = 0
KWVS 160105Z 17002KT 10/M03 A3013 RMK A01 T01031025  RH  041%=      5-min Rain = 0
KWVS 160110Z 17002KT 10/M03 A3013 RMK A01 T01031026  RH  041%=      5-min Rain = 0
KWVS 160115Z 17002KT 10/M03 A3013 RMK A01 T01031026  RH  041%=      5-min Rain = 0
KWVS 160120Z 18002KT 10/M03 A3013 RMK A01 T01001026  RH  041%=      5-min Rain = 0
KWVS 160125Z 18001KT 10/M03 A3013 RMK A01 T00981025  RH  042%=      5-min Rain = 0
KWVS 160130Z 18001KT 09/M02 A3013 RMK A01 T00941024  RH  044%=      5-min Rain = 0
KWVS 160135Z 17002KT 09/M02 A3013 RMK A01 T00891020  RH  047%=      5-min Rain = 0
KWVS 160140Z 17002KT 09/M02 A3013 RMK A01 T00861019  RH  048%=      5-min Rain = 0
KWVS 160145Z 17002KT 09/M02 A3012 RMK A01 T00871024  RH  046%=      5-min Rain = 0
KWVS 160150Z 17002KT 09/M02 A3012 RMK A01 T00921023  RH  045%=      5-min Rain = 0
KWVS 160155Z 18002KT 09/M02 A3012 RMK A01 T00891019  RH  047%=      5-min Rain = 0
KWVS 160200Z 20002KT 09/M02 A3013 RMK A01 T00861019  RH  048%=      5-min Rain = 0
KWVS 160205Z 20002KT 08/M02 A3013 RMK A01 T00841018  RH  049%=      5-min Rain = 0
KWVS 160210Z 20002KT 08/M02 A3013 RMK A01 T00831018  RH  049%=      5-min Rain = 0
KWVS 160215Z 20002KT 08/M02 A3013 RMK A01 T00821018  RH  050%=      5-min Rain = 0
KWVS 160220Z 20002KT 08/M02 A3013 RMK A01 T00781018  RH  051%=      5-min Rain = 0
KWVS 160225Z 20002KT 08/M02 A3013 RMK A01 T00771017  RH  052%=      5-min Rain = 0
KWVS 160230Z 21001KT 08/M02 A3013 RMK A01 T00781019  RH  051%=      5-min Rain = 0
KWVS 160235Z 20002KT 08/M02 A3013 RMK A01 T00761019  RH  051%=      5-min Rain = 0
KWVS 160240Z 21003KT 08/M02 A3013 RMK A01 T00781020  RH  050%=      5-min Rain = 0
KWVS 160245Z 22003KT 08/M02 A3013 RMK A01 T00761019  RH  051%=      5-min Rain = 0
KWVS 160250Z 24003KT 08/M02 A3013 RMK A01 T00751019  RH  052%=      5-min Rain = 0
KWVS 160255Z 24003KT 08/M02 A3013 RMK A01 T00751018  RH  052%=      5-min Rain = 0
KWVS 160300Z 24003KT 07/M02 A3013 RMK A01 T00741018  RH  053%=      5-min Rain = 0
KWVS 160305Z 24004KT 07/M02 A3013 RMK A01 T00731018  RH  053%=      5-min Rain = 0
KWVS 160310Z 23004KT 07/M02 A3013 RMK A01 T00721018  RH  054%=      5-min Rain = 0
KWVS 160315Z 23005KT 07/M02 A3013 RMK A01 T00721017  RH  053%=      5-min Rain = 0
KWVS 160320Z 23005KT 07/M02 A3013 RMK A01 T00711017  RH  054%=      5-min Rain = 0
KWVS 160325Z 23005KT 07/M02 A3013 RMK A01 T00681017  RH  055%=      5-min Rain = 0
KWVS 160330Z 23005KT 07/M02 A3014 RMK A01 T00691017  RH  055%=      5-min Rain = 0
KWVS 160335Z 22005KT 07/M02 A3014 RMK A01 T00681018  RH  055%=      5-min Rain = 0
KWVS 160340Z 22005KT 07/M02 A3014 RMK A01 T00681018  RH  055%=      5-min Rain = 0
KWVS 160345Z 22005KT 07/M02 A3014 RMK A01 T00671018  RH  055%=      5-min Rain = 0
KWVS 160350Z 21006KT 07/M02 A3014 RMK A01 T00661018  RH  055%=      5-min Rain = 0
KWVS 160355Z 22006KT 06/M02 A3014 RMK A01 T00631018  RH  057%=      5-min Rain = 0
KWVS 160400Z 22006KT 06/M02 A3014 RMK A01 T00621019  RH  056%=      5-min Rain = 0
KWVS 160405Z 22006KT 06/M02 A3014 RMK A01 T00621019  RH  057%=      5-min Rain = 0
KWVS 160410Z 22005KT 06/M02 A3014 RMK A01 T00631020  RH  056%=      5-min Rain = 0
KWVS 160415Z 23005KT 06/M02 A3014 RMK A01 T00631019  RH  056%=      5-min Rain = 0
KWVS 160420Z 23005KT 06/M02 A3014 RMK A01 T00621019  RH  056%=      5-min Rain = 0
KWVS 160425Z 22006KT 06/M02 A3013 RMK A01 T00621020  RH  056%=      5-min Rain = 0
KWVS 160430Z 23006KT 06/M02 A3013 RMK A01 T00621021  RH  056%=      5-min Rain = 0
KWVS 160435Z 23005KT 06/M02 A3013 RMK A01 T00621022  RH  055%=      5-min Rain = 0
KWVS 160440Z 23005KT 06/M02 A3013 RMK A01 T00641022  RH  055%=      5-min Rain = 0
KWVS 160445Z 23005KT 07/M02 A3013 RMK A01 T00661022  RH  054%=      5-min Rain = 0
KWVS 160450Z 22005KT 06/M02 A3013 RMK A01 T00641022  RH  054%=      5-min Rain = 0
KWVS 160455Z 22005KT 06/M02 A3013 RMK A01 T00631022  RH  055%=      5-min Rain = 0
KWVS 160500Z 22005KT 06/M02 A3013 RMK A01 T00631022  RH  055%=      5-min Rain = 0
KWVS 160505Z 22006KT 06/M02 A3013 RMK A01 T00641022  RH  055%=      5-min Rain = 0
KWVS 160510Z 22006KT 06/M02 A3013 RMK A01 T00641022  RH  055%=      5-min Rain = 0
KWVS 160515Z 22005KT 06/M02 A3012 RMK A01 T00641022  RH  055%=      5-min Rain = 0
KWVS 160520Z 23005KT 06/M02 A3012 RMK A01 T00631021  RH  055%=      5-min Rain = 0
KWVS 160525Z 23005KT 06/M02 A3012 RMK A01 T00631021  RH  056%=      5-min Rain = 0
KWVS 160530Z 23005KT 06/M02 A3012 RMK A01 T00641020  RH  056%=      5-min Rain = 0
KWVS 160535Z 23005KT 06/M02 A3012 RMK A01 T00641019  RH  056%=      5-min Rain = 0
KWVS 160540Z 23005KT 06/M02 A3012 RMK A01 T00641018  RH  056%=      5-min Rain = 0
KWVS 160545Z 23005KT 06/M02 A3012 RMK A01 T00641017  RH  056%=      5-min Rain = 0
KWVS 160550Z 23005KT 06/M02 A3012 RMK A01 T00621017  RH  057%=      5-min Rain = 0
KWVS 160555Z 23005KT 06/M02 A3012 RMK A01 T00641017  RH  057%=      5-min Rain = 0

Page generated in 0.0091 seconds.